createdAt,value
2018-04-25T00:00:10.911Z,0.00
2018-04-25T00:01:11.100Z,0.00
2018-04-25T00:02:11.289Z,0.00
2018-04-25T00:03:11.473Z,0.00
2018-04-25T00:04:11.663Z,0.00
2018-04-25T00:05:11.850Z,0.00
2018-04-25T00:06:12.041Z,0.00
2018-04-25T00:07:12.230Z,0.00
2018-04-25T00:08:12.417Z,0.00
2018-04-25T00:09:12.604Z,0.00
2018-04-25T00:10:12.808Z,0.00
2018-04-25T00:11:12.981Z,0.00
2018-04-25T00:12:13.170Z,0.00
2018-04-25T00:13:13.360Z,0.00
2018-04-25T00:14:13.547Z,0.00
2018-04-25T00:15:13.733Z,0.00
2018-04-25T00:16:13.923Z,0.00
2018-04-25T00:17:14.110Z,0.00
2018-04-25T00:18:14.299Z,0.00
2018-04-25T00:19:14.486Z,0.00
2018-04-25T00:20:14.675Z,0.00
2018-04-25T00:21:14.862Z,0.00
2018-04-25T00:22:15.050Z,0.00
2018-04-25T00:23:15.243Z,0.00
2018-04-25T00:24:15.427Z,0.00
2018-04-25T00:25:15.615Z,0.00
2018-04-25T00:26:15.805Z,0.00
2018-04-25T00:27:15.991Z,0.00
2018-04-25T00:28:16.178Z,0.00
2018-04-25T00:29:16.365Z,0.00
2018-04-25T00:30:16.554Z,8.00
2018-04-25T00:31:16.745Z,8.00
2018-04-25T00:32:16.929Z,8.00
2018-04-25T00:33:17.115Z,8.00
2018-04-25T00:34:17.304Z,88.00
2018-04-25T00:35:17.493Z,8.00
2018-04-25T00:36:17.679Z,12.00
2018-04-25T00:37:17.866Z,8.00
2018-04-25T00:38:18.054Z,8.00
2018-04-25T00:39:18.243Z,8.00
2018-04-25T00:40:18.431Z,8.00
2018-04-25T00:41:18.617Z,12.00
2018-04-25T00:42:18.805Z,12.00
2018-04-25T00:43:18.992Z,12.00
2018-04-25T00:44:19.183Z,8.00
2018-04-25T00:45:19.372Z,8.00
2018-04-25T00:46:19.557Z,88.00
2018-04-25T00:47:19.746Z,8.00
2018-04-25T00:48:19.934Z,12.00
2018-04-25T00:49:20.121Z,8.00
2018-04-25T00:50:20.307Z,8.00
2018-04-25T00:51:20.495Z,12.00
2018-04-25T00:52:20.685Z,12.00
2018-04-25T00:53:20.874Z,8.00
2018-04-25T00:54:21.059Z,8.00
2018-04-25T00:55:21.246Z,0.00
2018-04-25T00:56:21.434Z,0.00
2018-04-25T00:57:21.621Z,0.00
2018-04-25T00:58:21.808Z,8.00
2018-04-25T00:59:21.996Z,8.00
2018-04-25T01:00:22.187Z,88.00
2018-04-25T01:01:22.370Z,8.00
2018-04-25T01:02:22.561Z,8.00
2018-04-25T01:03:22.748Z,8.00
2018-04-25T01:04:22.936Z,8.00
2018-04-25T01:05:23.122Z,88.00
2018-04-25T01:06:23.310Z,8.00
2018-04-25T01:07:23.502Z,8.00
2018-04-25T01:08:23.692Z,8.00
2018-04-25T01:09:23.914Z,88.00
2018-04-25T01:10:24.065Z,88.00
2018-04-25T01:11:24.253Z,88.00
2018-04-25T01:12:24.445Z,8.00
2018-04-25T01:13:24.629Z,8.00
2018-04-25T01:14:24.817Z,88.00
2018-04-25T01:15:24.999Z,8.00
2018-04-25T01:16:25.188Z,8.00
2018-04-25T01:17:25.374Z,8.00
2018-04-25T01:18:25.563Z,8.00
2018-04-25T01:19:40.349Z,88.00
2018-04-25T01:20:25.895Z,8.00
2018-04-25T01:21:26.080Z,8.00
2018-04-25T01:22:26.270Z,8.00
2018-04-25T01:23:26.456Z,4.00
2018-04-25T01:24:26.645Z,4.00
2018-04-25T01:25:26.834Z,88.00
2018-04-25T01:26:27.022Z,8.00
2018-04-25T01:27:27.209Z,8.00
2018-04-25T01:28:27.396Z,8.00
2018-04-25T01:29:27.584Z,8.00
2018-04-25T01:30:27.771Z,8.00
2018-04-25T01:31:27.962Z,8.00
2018-04-25T01:32:28.147Z,8.00
2018-04-25T01:33:28.335Z,8.00
2018-04-25T01:34:28.524Z,8.00
2018-04-25T01:35:28.712Z,8.00
2018-04-25T01:36:28.899Z,8.00
2018-04-25T01:37:29.088Z,8.00
2018-04-25T01:38:29.274Z,8.00
2018-04-25T01:39:29.459Z,8.00
2018-04-25T01:40:29.649Z,0.00
2018-04-25T01:41:29.835Z,8.00
2018-04-25T01:42:30.023Z,8.00
2018-04-25T01:43:30.211Z,8.00
2018-04-25T01:44:30.402Z,8.00
2018-04-25T01:45:30.588Z,8.00
2018-04-25T01:46:30.774Z,8.00
2018-04-25T01:47:30.963Z,8.00
2018-04-25T01:48:31.153Z,12.00
2018-04-25T01:49:31.337Z,8.00
2018-04-25T01:50:31.525Z,0.00
2018-04-25T01:51:31.711Z,0.00
2018-04-25T01:52:31.898Z,0.00
2018-04-25T01:53:32.087Z,0.00
2018-04-25T01:54:32.273Z,0.00
2018-04-25T01:55:32.461Z,0.00
2018-04-25T01:56:32.649Z,0.00
2018-04-25T01:57:32.836Z,0.00
2018-04-25T01:58:33.024Z,0.00
2018-04-25T01:59:33.212Z,0.00
2018-04-25T02:00:33.399Z,0.00
2018-04-25T02:01:33.583Z,0.00
2018-04-25T02:02:33.772Z,0.00
2018-04-25T02:03:33.958Z,0.00
2018-04-25T02:04:34.144Z,0.00
2018-04-25T02:05:34.334Z,0.00
2018-04-25T02:06:34.520Z,0.00
2018-04-25T02:07:34.711Z,0.00
2018-04-25T02:08:34.895Z,0.00
2018-04-25T02:09:35.083Z,0.00
2018-04-25T02:10:35.270Z,0.00
2018-04-25T02:11:35.462Z,0.00
2018-04-25T02:12:35.653Z,0.00
2018-04-25T02:13:35.834Z,0.00
2018-04-25T02:14:36.021Z,0.00
2018-04-25T02:15:36.210Z,0.00
2018-04-25T02:16:36.396Z,0.00
2018-04-25T02:17:36.585Z,0.00
2018-04-25T02:18:36.771Z,0.00
2018-04-25T02:19:36.958Z,0.00
2018-04-25T02:20:37.148Z,0.00
2018-04-25T02:21:37.333Z,0.00
2018-04-25T02:22:37.521Z,0.00
2018-04-25T02:23:37.708Z,0.00
2018-04-25T02:24:37.967Z,0.00
2018-04-25T02:25:38.084Z,0.00
2018-04-25T02:26:38.273Z,0.00
2018-04-25T02:27:38.459Z,0.00
2018-04-25T02:28:38.645Z,0.00
2018-04-25T02:29:38.829Z,0.00
2018-04-25T02:30:39.024Z,0.00
2018-04-25T02:31:39.205Z,0.00
2018-04-25T02:32:39.391Z,0.00
2018-04-25T02:33:39.579Z,0.00
2018-04-25T02:34:39.767Z,0.00
2018-04-25T02:35:39.956Z,0.00
2018-04-25T02:36:40.142Z,0.00
2018-04-25T02:37:40.335Z,0.00
2018-04-25T02:38:40.515Z,0.00
2018-04-25T02:39:40.705Z,0.00
2018-04-25T02:40:40.891Z,0.00
2018-04-25T02:41:41.080Z,0.00
2018-04-25T02:42:41.266Z,0.00
2018-04-25T02:43:41.455Z,0.00
2018-04-25T02:44:41.643Z,0.00
2018-04-25T02:45:41.833Z,0.00
2018-04-25T02:46:42.018Z,0.00
2018-04-25T02:47:42.206Z,0.00
2018-04-25T02:48:42.393Z,0.00
2018-04-25T02:49:42.582Z,0.00
2018-04-25T02:50:42.771Z,0.00
2018-04-25T02:51:42.954Z,0.00
2018-04-25T02:52:43.145Z,0.00
2018-04-25T02:53:43.333Z,0.00
2018-04-25T02:54:43.518Z,0.00
2018-04-25T02:55:43.705Z,0.00
2018-04-25T02:56:43.891Z,0.00
2018-04-25T02:57:44.078Z,0.00
2018-04-25T02:58:44.267Z,0.00
2018-04-25T02:59:44.453Z,0.00
2018-04-25T03:00:44.641Z,0.00
2018-04-25T03:01:44.829Z,0.00
2018-04-25T03:02:45.016Z,0.00
2018-04-25T03:03:45.210Z,0.00
2018-04-25T03:04:45.390Z,0.00
2018-04-25T03:05:45.578Z,8.00
2018-04-25T03:06:45.765Z,8.00
2018-04-25T03:07:45.952Z,8.00
2018-04-25T03:08:46.139Z,8.00
2018-04-25T03:09:46.333Z,8.00
2018-04-25T03:10:46.515Z,8.00
2018-04-25T03:11:46.702Z,8.00
2018-04-25T03:12:46.888Z,8.00
2018-04-25T03:13:47.078Z,8.00
2018-04-25T03:14:47.262Z,0.00
2018-04-25T03:15:47.452Z,0.00
2018-04-25T03:16:47.720Z,0.00
2018-04-25T03:17:47.828Z,0.00
2018-04-25T03:18:48.011Z,0.00
2018-04-25T03:19:48.197Z,0.00
2018-04-25T03:20:48.385Z,0.00
2018-04-25T03:21:48.574Z,0.00
2018-04-25T03:22:48.760Z,0.00
2018-04-25T03:23:48.946Z,0.00
2018-04-25T03:24:49.133Z,0.00
2018-04-25T03:25:49.320Z,4.00
2018-04-25T03:26:49.505Z,4.00
2018-04-25T03:27:49.698Z,8.00
2018-04-25T03:28:49.880Z,12.00
2018-04-25T03:29:50.069Z,12.00
2018-04-25T03:30:50.254Z,12.00
2018-04-25T03:31:50.443Z,12.00
2018-04-25T03:32:50.628Z,16.00
2018-04-25T03:33:50.819Z,12.00
2018-04-25T03:34:51.005Z,16.00
2018-04-25T03:35:51.193Z,8.00
2018-04-25T03:36:51.380Z,8.00
2018-04-25T03:37:51.567Z,8.00
2018-04-25T03:38:51.755Z,12.00
2018-04-25T03:39:51.941Z,12.00
2018-04-25T03:40:52.126Z,20.00
2018-04-25T03:41:52.312Z,20.00
2018-04-25T03:42:52.501Z,24.00
2018-04-25T03:43:52.692Z,28.00
2018-04-25T03:44:52.888Z,32.00
2018-04-25T03:45:53.061Z,36.00
2018-04-25T03:46:53.249Z,44.00
2018-04-25T03:47:53.436Z,52.00
2018-04-25T03:48:53.624Z,148.00
2018-04-25T03:49:53.812Z,72.00
2018-04-25T03:50:53.999Z,84.00
2018-04-25T03:51:54.186Z,96.00
2018-04-25T03:52:54.373Z,104.00
2018-04-25T03:53:54.561Z,120.00
2018-04-25T03:54:54.746Z,132.00
2018-04-25T03:55:54.934Z,148.00
2018-04-25T03:56:55.122Z,164.00
2018-04-25T03:57:55.309Z,180.00
2018-04-25T03:58:55.496Z,200.00
2018-04-25T03:59:55.684Z,220.00
2018-04-25T04:00:55.872Z,240.00
2018-04-25T04:01:56.059Z,264.00
2018-04-25T04:02:56.244Z,288.00
2018-04-25T04:03:56.436Z,316.00
2018-04-25T04:04:56.619Z,348.00
2018-04-25T04:05:56.807Z,380.00
2018-04-25T04:06:56.997Z,416.00
2018-04-25T04:07:57.183Z,452.00
2018-04-25T04:08:57.369Z,496.00
2018-04-25T04:09:57.559Z,544.00
2018-04-25T04:10:57.745Z,592.00
2018-04-25T04:11:57.932Z,652.00
2018-04-25T04:12:58.169Z,712.00
2018-04-25T04:13:58.306Z,768.00
2018-04-25T04:14:58.494Z,828.00
2018-04-25T04:15:58.680Z,888.00
2018-04-25T04:16:58.868Z,960.00
2018-04-25T04:17:59.057Z,1040.00
2018-04-25T04:18:59.243Z,1060.00
2018-04-25T04:19:59.432Z,1052.00
2018-04-25T04:20:59.617Z,1036.00
2018-04-25T04:21:59.805Z,1088.00
2018-04-25T04:22:59.992Z,1132.00
2018-04-25T04:24:00.181Z,1200.00
2018-04-25T04:25:00.366Z,1316.00
2018-04-25T04:26:00.555Z,1292.00
2018-04-25T04:27:00.741Z,1208.00
2018-04-25T04:28:00.928Z,1204.00
2018-04-25T04:29:01.116Z,1320.00
2018-04-25T04:30:01.304Z,1568.00
2018-04-25T04:31:01.493Z,1840.00
2018-04-25T04:32:01.679Z,1892.00
2018-04-25T04:33:01.868Z,2128.00
2018-04-25T04:34:02.055Z,2424.00
2018-04-25T04:35:02.241Z,2848.00
2018-04-25T04:36:02.430Z,4304.00
2018-04-25T04:37:02.617Z,5256.00
2018-04-25T04:38:02.802Z,5116.00
2018-04-25T04:39:02.992Z,6044.00
2018-04-25T04:40:03.179Z,6108.00
2018-04-25T04:41:03.366Z,5908.00
2018-04-25T04:42:03.553Z,3336.00
2018-04-25T04:43:03.741Z,2056.00
2018-04-25T04:44:03.930Z,1984.00
2018-04-25T04:45:04.118Z,1872.00
2018-04-25T04:46:04.307Z,1872.00
2018-04-25T04:47:04.494Z,1976.00
2018-04-25T04:48:04.682Z,2216.00
2018-04-25T04:49:04.872Z,2336.00
2018-04-25T04:50:05.061Z,2520.00
2018-04-25T04:51:05.246Z,2932.00
2018-04-25T04:52:05.434Z,2908.00
2018-04-25T04:53:05.621Z,3008.00
2018-04-25T04:54:05.810Z,3104.00
2018-04-25T04:55:06.000Z,3064.00
2018-04-25T04:56:06.187Z,3024.00
2018-04-25T04:57:06.376Z,2980.00
2018-04-25T04:58:06.565Z,3012.00
2018-04-25T04:59:06.752Z,2932.00
2018-04-25T05:00:06.942Z,2872.00
2018-04-25T05:01:07.137Z,2680.00
2018-04-25T05:02:07.319Z,2532.00
2018-04-25T05:03:07.511Z,2612.00
2018-04-25T05:04:07.697Z,2836.00
2018-04-25T05:05:07.884Z,3112.00
2018-04-25T05:06:08.071Z,3592.00
2018-04-25T05:07:08.259Z,4248.00
2018-04-25T05:08:08.447Z,4700.00
2018-04-25T05:09:08.636Z,4736.00
2018-04-25T05:10:08.825Z,4512.00
2018-04-25T05:11:09.016Z,4392.00
2018-04-25T05:12:09.202Z,4676.00
2018-04-25T05:13:09.465Z,5028.00
2018-04-25T05:14:09.580Z,5336.00
2018-04-25T05:15:09.767Z,5604.00
2018-04-25T05:16:09.959Z,4752.00
2018-04-25T05:17:10.145Z,3976.00
2018-04-25T05:18:10.336Z,3344.00
2018-04-25T05:19:10.523Z,2908.00
2018-04-25T05:20:10.712Z,2584.00
2018-04-25T05:21:10.900Z,2428.00
2018-04-25T05:22:11.089Z,2412.00
2018-04-25T05:23:11.276Z,2416.00
2018-04-25T05:24:11.467Z,2392.00
2018-04-25T05:25:11.655Z,2388.00
2018-04-25T05:26:11.843Z,2360.00
2018-04-25T05:27:12.033Z,2328.00
2018-04-25T05:28:12.222Z,2364.00
2018-04-25T05:29:12.412Z,2456.00
2018-04-25T05:30:12.600Z,2492.00
2018-04-25T05:31:12.786Z,2496.00
2018-04-25T05:32:13.133Z,2504.00
2018-04-25T05:33:13.164Z,2500.00
2018-04-25T05:34:13.354Z,2680.00
2018-04-25T05:35:13.542Z,2996.00
2018-04-25T05:36:13.732Z,3576.00
2018-04-25T05:37:13.920Z,4156.00
2018-04-25T05:38:14.109Z,4356.00
2018-04-25T05:39:14.298Z,4928.00
2018-04-25T05:40:14.487Z,5492.00
2018-04-25T05:41:14.674Z,6028.00
2018-04-25T05:42:14.864Z,6748.00
2018-04-25T05:43:15.081Z,7088.00
2018-04-25T05:44:15.241Z,6880.00
2018-04-25T05:45:15.439Z,6164.00
2018-04-25T05:46:15.618Z,5444.00
2018-04-25T05:47:15.805Z,5308.00
2018-04-25T05:48:15.995Z,5680.00
2018-04-25T05:49:16.184Z,6144.00
2018-04-25T05:50:16.373Z,6848.00
2018-04-25T05:51:16.561Z,7804.00
2018-04-25T05:52:16.749Z,9108.00
2018-04-25T05:53:16.940Z,9332.00
2018-04-25T05:54:17.129Z,8944.00
2018-04-25T05:55:17.318Z,8828.00
2018-04-25T05:56:17.507Z,8748.00
2018-04-25T05:57:17.697Z,8204.00
2018-04-25T05:58:17.885Z,7540.00
2018-04-25T05:59:18.079Z,6492.00
2018-04-25T06:00:18.265Z,5196.00
2018-04-25T06:01:18.455Z,4376.00
2018-04-25T06:02:18.643Z,3964.00
2018-04-25T06:03:18.832Z,3592.00
2018-04-25T06:04:19.021Z,3104.00
2018-04-25T06:05:19.213Z,2744.00
2018-04-25T06:06:19.401Z,2608.00
2018-04-25T06:07:19.599Z,2584.00
2018-04-25T06:08:19.778Z,2556.00
2018-04-25T06:09:19.980Z,2652.00
2018-04-25T06:10:20.158Z,2748.00
2018-04-25T06:11:20.345Z,2820.00
2018-04-25T06:12:20.549Z,2692.00
2018-04-25T06:13:20.724Z,2856.00
2018-04-25T06:14:20.913Z,3324.00
2018-04-25T06:15:21.110Z,3320.00
2018-04-25T06:16:21.292Z,3252.00
2018-04-25T06:17:21.480Z,3404.00
2018-04-25T06:18:21.671Z,3516.00
2018-04-25T06:19:21.857Z,4424.00
2018-04-25T06:20:22.101Z,5260.00
2018-04-25T06:21:22.267Z,4548.00
2018-04-25T06:22:22.449Z,4500.00
2018-04-25T06:23:22.609Z,4356.00
2018-04-25T06:24:22.799Z,3972.00
2018-04-25T06:25:22.993Z,4068.00
2018-04-25T06:26:23.176Z,4508.00
2018-04-25T06:27:23.366Z,4596.00
2018-04-25T06:28:23.558Z,4680.00
2018-04-25T06:29:23.745Z,5072.00
2018-04-25T06:30:23.932Z,5496.00
2018-04-25T06:31:24.122Z,6064.00
2018-04-25T06:32:24.317Z,6844.00
2018-04-25T06:33:24.500Z,8240.00
2018-04-25T06:34:24.687Z,11132.00
2018-04-25T06:35:24.879Z,9644.00
2018-04-25T06:36:25.067Z,10148.00
2018-04-25T06:37:25.257Z,11756.00
2018-04-25T06:38:25.446Z,12792.00
2018-04-25T06:39:25.641Z,15212.00
2018-04-25T06:40:25.825Z,14948.00
2018-04-25T06:41:26.015Z,12592.00
2018-04-25T06:42:26.205Z,11272.00
2018-04-25T06:43:26.396Z,10260.00
2018-04-25T06:44:26.590Z,9796.00
2018-04-25T06:45:26.776Z,9608.00
2018-04-25T06:46:26.969Z,9488.00
2018-04-25T06:47:27.155Z,8768.00
2018-04-25T06:48:27.345Z,8400.00
2018-04-25T06:49:27.535Z,7580.00
2018-04-25T06:50:27.725Z,7168.00
2018-04-25T06:51:27.915Z,7196.00
2018-04-25T06:52:28.104Z,6688.00
2018-04-25T06:53:28.295Z,5900.00
2018-04-25T06:54:28.486Z,5444.00
2018-04-25T06:55:28.677Z,5776.00
2018-04-25T06:56:28.866Z,6464.00
2018-04-25T06:57:29.055Z,6252.00
2018-04-25T06:58:29.244Z,4920.00
2018-04-25T06:59:29.434Z,4508.00
2018-04-25T07:00:29.630Z,4692.00
2018-04-25T07:01:29.816Z,5828.00
2018-04-25T07:02:30.006Z,6060.00
2018-04-25T07:03:30.198Z,6356.00
2018-04-25T07:04:30.389Z,7644.00
2018-04-25T07:05:30.578Z,5924.00
2018-04-25T07:06:30.767Z,6372.00
2018-04-25T07:07:30.957Z,6172.00
2018-04-25T07:08:31.148Z,5368.00
2018-04-25T07:09:31.339Z,4532.00
2018-04-25T07:10:31.529Z,3756.00
2018-04-25T07:11:31.718Z,3572.00
2018-04-25T07:12:31.908Z,3532.00
2018-04-25T07:13:32.099Z,3756.00
2018-04-25T07:14:32.288Z,4536.00
2018-04-25T07:15:32.486Z,5444.00
2018-04-25T07:16:32.666Z,5748.00
2018-04-25T07:17:32.858Z,5752.00
2018-04-25T07:18:33.048Z,5024.00
2018-04-25T07:19:33.238Z,4400.00
2018-04-25T07:20:33.430Z,4468.00
2018-04-25T07:21:33.620Z,5040.00
2018-04-25T07:22:33.809Z,7112.00
2018-04-25T07:23:33.999Z,7684.00
2018-04-25T07:24:34.189Z,7484.00
2018-04-25T07:25:34.378Z,6660.00
2018-04-25T07:26:34.572Z,5196.00
2018-04-25T07:27:34.757Z,5000.00
2018-04-25T07:28:34.948Z,4876.00
2018-04-25T07:29:35.153Z,4308.00
2018-04-25T07:30:35.328Z,4092.00
2018-04-25T07:31:35.518Z,3988.00
2018-04-25T07:32:35.707Z,3328.00
2018-04-25T07:33:35.896Z,3352.00
2018-04-25T07:34:36.086Z,3996.00
2018-04-25T07:35:36.274Z,3868.00
2018-04-25T07:36:36.465Z,3420.00
2018-04-25T07:37:36.654Z,3036.00
2018-04-25T07:38:36.843Z,2924.00
2018-04-25T07:39:37.033Z,3172.00
2018-04-25T07:40:37.222Z,3368.00
2018-04-25T07:41:37.418Z,3476.00
2018-04-25T07:42:37.600Z,4244.00
2018-04-25T07:43:37.790Z,4684.00
2018-04-25T07:44:37.980Z,5220.00
2018-04-25T07:45:38.168Z,5376.00
2018-04-25T07:46:38.360Z,5000.00
2018-04-25T07:47:38.549Z,4464.00
2018-04-25T07:48:38.737Z,5248.00
2018-04-25T07:49:38.927Z,6516.00
2018-04-25T07:50:39.118Z,6956.00
2018-04-25T07:51:39.306Z,8160.00
2018-04-25T07:52:39.496Z,8724.00
2018-04-25T07:53:39.686Z,8440.00
2018-04-25T07:54:39.875Z,9412.00
2018-04-25T07:55:40.067Z,10076.00
2018-04-25T07:56:40.261Z,10356.00
2018-04-25T07:57:40.459Z,10040.00
2018-04-25T07:58:40.637Z,10528.00
2018-04-25T07:59:40.826Z,10216.00
2018-04-25T08:00:41.015Z,9224.00
2018-04-25T08:01:41.207Z,9104.00
2018-04-25T08:02:41.401Z,8620.00
2018-04-25T08:03:41.588Z,9724.00
2018-04-25T08:04:41.779Z,8680.00
2018-04-25T08:05:41.968Z,9052.00
2018-04-25T08:06:42.160Z,9472.00
2018-04-25T08:07:42.348Z,8764.00
2018-04-25T08:08:42.537Z,8992.00
2018-04-25T08:09:42.728Z,9768.00
2018-04-25T08:10:42.918Z,9856.00
2018-04-25T08:11:43.107Z,8992.00
2018-04-25T08:12:43.297Z,12020.00
2018-04-25T08:13:43.491Z,13480.00
2018-04-25T08:14:43.679Z,13444.00
2018-04-25T08:15:43.869Z,15408.00
2018-04-25T08:16:44.058Z,16296.00
2018-04-25T08:17:44.249Z,14796.00
2018-04-25T08:18:44.438Z,16248.00
2018-04-25T08:19:44.637Z,16568.00
2018-04-25T08:20:44.820Z,22272.00
2018-04-25T08:21:45.012Z,64704.00
2018-04-25T08:22:45.201Z,24544.00
2018-04-25T08:23:45.425Z,26400.00
2018-04-25T08:24:45.582Z,29312.00
2018-04-25T08:25:45.772Z,98304.00
2018-04-25T08:26:45.963Z,53600.00
2018-04-25T08:27:46.160Z,48896.00
2018-04-25T08:28:46.352Z,92672.00
2018-04-25T08:29:46.541Z,117504.00
2018-04-25T08:30:46.733Z,121952.00
2018-04-25T08:31:46.924Z,105280.00
2018-04-25T08:32:47.121Z,127584.00
2018-04-25T08:33:47.311Z,24992.00
2018-04-25T08:34:47.503Z,83296.00
2018-04-25T08:35:47.696Z,128384.00
2018-04-25T08:36:47.888Z,28384.00
2018-04-25T08:37:48.082Z,24544.00
2018-04-25T08:38:48.279Z,123840.00
2018-04-25T08:39:48.470Z,77344.00
2018-04-25T08:40:48.665Z,49760.00
2018-04-25T08:41:48.860Z,45728.00
2018-04-25T08:42:49.057Z,39424.00
2018-04-25T08:43:49.250Z,30368.00
2018-04-25T08:44:49.461Z,33952.00
2018-04-25T08:45:49.641Z,31200.00
2018-04-25T08:46:49.837Z,19808.00
2018-04-25T08:47:50.037Z,17568.00
2018-04-25T08:48:50.234Z,14556.00
2018-04-25T08:49:50.425Z,12776.00
2018-04-25T08:50:50.621Z,12356.00
2018-04-25T08:51:50.816Z,12476.00
2018-04-25T08:52:51.012Z,11684.00
2018-04-25T08:53:51.205Z,10592.00
2018-04-25T08:54:51.403Z,10984.00
2018-04-25T08:55:51.596Z,12264.00
2018-04-25T08:56:51.796Z,9912.00
2018-04-25T08:57:51.987Z,7848.00
2018-04-25T08:58:52.181Z,6656.00
2018-04-25T08:59:52.376Z,6448.00
2018-04-25T09:00:52.570Z,7948.00
2018-04-25T09:01:52.763Z,9080.00
2018-04-25T09:02:52.958Z,11716.00
2018-04-25T09:03:53.151Z,12252.00
2018-04-25T09:04:53.346Z,11732.00
2018-04-25T09:05:53.557Z,11572.00
2018-04-25T09:06:53.731Z,11008.00
2018-04-25T09:07:53.927Z,9724.00
2018-04-25T09:08:54.119Z,11444.00
2018-04-25T09:09:54.318Z,10828.00
2018-04-25T09:10:54.511Z,8884.00
2018-04-25T09:11:54.700Z,8636.00
2018-04-25T09:12:54.892Z,8964.00
2018-04-25T09:13:55.085Z,8220.00
2018-04-25T09:14:55.279Z,6724.00
2018-04-25T09:15:55.470Z,6924.00
2018-04-25T09:16:55.663Z,7276.00
2018-04-25T09:17:55.855Z,8896.00
2018-04-25T09:18:56.057Z,12976.00
2018-04-25T09:19:56.240Z,15764.00
2018-04-25T09:20:56.441Z,22048.00
2018-04-25T09:21:56.627Z,30272.00
2018-04-25T09:22:56.820Z,59584.00
2018-04-25T09:23:57.012Z,43552.00
2018-04-25T09:24:57.204Z,40192.00
2018-04-25T09:25:57.396Z,29536.00
2018-04-25T09:26:57.592Z,36160.00
2018-04-25T09:27:57.780Z,32832.00
2018-04-25T09:28:57.971Z,29568.00
2018-04-25T09:29:58.163Z,23104.00
2018-04-25T09:30:58.357Z,18048.00
2018-04-25T09:31:58.546Z,12444.00
2018-04-25T09:32:58.739Z,10384.00
2018-04-25T09:33:58.929Z,9304.00
2018-04-25T09:34:59.123Z,7764.00
2018-04-25T09:35:59.310Z,6248.00
2018-04-25T09:36:59.504Z,5988.00
2018-04-25T09:37:59.697Z,5556.00
2018-04-25T09:38:59.891Z,5156.00
2018-04-25T09:40:00.084Z,4928.00
2018-04-25T09:41:00.276Z,4852.00
2018-04-25T09:42:00.468Z,4740.00
2018-04-25T09:43:00.665Z,4016.00
2018-04-25T09:44:00.853Z,3636.00
2018-04-25T09:45:01.046Z,3464.00
2018-04-25T09:46:01.288Z,3216.00
2018-04-25T09:47:01.429Z,2816.00
2018-04-25T09:48:01.621Z,2728.00
2018-04-25T09:49:01.812Z,2720.00
2018-04-25T09:50:02.065Z,2776.00
2018-04-25T09:51:02.195Z,2836.00
2018-04-25T09:52:02.395Z,3348.00
2018-04-25T09:53:02.577Z,5416.00
2018-04-25T09:54:02.767Z,5752.00
2018-04-25T09:55:02.959Z,5428.00
2018-04-25T09:56:03.204Z,5140.00
2018-04-25T09:57:03.395Z,5472.00
2018-04-25T09:58:03.729Z,6388.00
2018-04-25T09:59:03.838Z,7876.00
2018-04-25T10:00:04.029Z,8844.00
2018-04-25T10:01:04.220Z,9940.00
2018-04-25T10:02:04.410Z,12420.00
2018-04-25T10:03:04.600Z,15844.00
2018-04-25T10:04:04.857Z,12096.00
2018-04-25T10:05:04.983Z,9996.00
2018-04-25T10:06:05.173Z,10720.00
2018-04-25T10:07:05.365Z,11660.00
2018-04-25T10:08:05.560Z,12776.00
2018-04-25T10:09:05.747Z,14500.00
2018-04-25T10:10:05.937Z,15368.00
2018-04-25T10:11:06.128Z,16736.00
2018-04-25T10:12:06.319Z,19168.00
2018-04-25T10:13:06.509Z,22688.00
2018-04-25T10:14:06.700Z,25792.00
2018-04-25T10:15:06.893Z,25120.00
2018-04-25T10:16:07.083Z,32000.00
2018-04-25T10:17:07.281Z,27488.00
2018-04-25T10:18:07.464Z,30176.00
2018-04-25T10:19:07.657Z,32864.00
2018-04-25T10:20:07.852Z,26688.00
2018-04-25T10:21:08.044Z,30048.00
2018-04-25T10:22:08.230Z,34912.00
2018-04-25T10:23:08.424Z,27424.00
2018-04-25T10:24:08.621Z,33088.00
2018-04-25T10:25:08.807Z,26912.00
2018-04-25T10:26:09.001Z,27616.00
2018-04-25T10:27:09.193Z,24544.00
2018-04-25T10:28:09.385Z,27072.00
2018-04-25T10:29:09.577Z,30912.00
2018-04-25T10:30:09.772Z,28032.00
2018-04-25T10:31:09.965Z,27872.00
2018-04-25T10:32:10.157Z,26400.00
2018-04-25T10:33:10.349Z,27712.00
2018-04-25T10:34:10.543Z,28928.00
2018-04-25T10:35:10.738Z,23264.00
2018-04-25T10:36:10.932Z,21824.00
2018-04-25T10:37:11.125Z,23936.00
2018-04-25T10:38:11.318Z,23424.00
2018-04-25T10:39:11.512Z,23872.00
2018-04-25T10:40:11.707Z,20320.00
2018-04-25T10:41:11.900Z,25888.00
2018-04-25T10:42:12.094Z,47328.00
2018-04-25T10:43:12.288Z,34816.00
2018-04-25T10:44:12.568Z,89056.00
2018-04-25T10:45:12.675Z,81664.00
2018-04-25T10:46:12.867Z,24768.00
2018-04-25T10:47:13.063Z,26464.00
2018-04-25T10:48:13.256Z,131168.00
2018-04-25T10:49:13.448Z,21248.00
2018-04-25T10:50:13.642Z,18112.00
2018-04-25T10:51:13.837Z,22080.00
2018-04-25T10:52:14.031Z,24416.00
2018-04-25T10:53:14.223Z,18240.00
2018-04-25T10:54:14.416Z,15948.00
2018-04-25T10:55:14.675Z,13536.00
2018-04-25T10:56:14.803Z,11888.00
2018-04-25T10:57:14.998Z,9036.00
2018-04-25T10:58:15.188Z,7932.00
2018-04-25T10:59:15.382Z,10344.00
2018-04-25T11:00:15.575Z,11660.00
2018-04-25T11:01:15.768Z,11004.00
2018-04-25T11:02:15.963Z,8892.00
2018-04-25T11:03:16.156Z,7376.00
2018-04-25T11:04:16.350Z,5788.00
2018-04-25T11:05:16.543Z,5596.00
2018-04-25T11:06:16.734Z,4920.00
2018-04-25T11:07:16.928Z,4320.00
2018-04-25T11:08:17.189Z,4312.00
2018-04-25T11:09:17.311Z,4624.00
2018-04-25T11:10:17.502Z,4412.00
2018-04-25T11:11:17.694Z,3744.00
2018-04-25T11:12:17.887Z,4128.00
2018-04-25T11:13:18.076Z,4596.00
2018-04-25T11:14:18.268Z,4720.00
2018-04-25T11:15:18.462Z,4560.00
2018-04-25T11:16:18.652Z,4172.00
2018-04-25T11:17:18.843Z,3768.00
2018-04-25T11:18:19.033Z,4348.00
2018-04-25T11:19:19.224Z,6116.00
2018-04-25T11:20:19.415Z,8884.00
2018-04-25T11:21:19.602Z,12460.00
2018-04-25T11:22:19.796Z,18528.00
2018-04-25T11:23:19.981Z,21152.00
2018-04-25T11:24:20.174Z,20864.00
2018-04-25T11:25:20.362Z,19424.00
2018-04-25T11:26:20.549Z,21728.00
2018-04-25T11:27:20.740Z,22400.00
2018-04-25T11:28:20.929Z,21664.00
2018-04-25T11:29:21.122Z,21088.00
2018-04-25T11:30:21.309Z,17856.00
2018-04-25T11:31:21.497Z,18208.00
2018-04-25T11:32:21.690Z,17024.00
2018-04-25T11:33:21.876Z,15788.00
2018-04-25T11:34:22.066Z,13764.00
2018-04-25T11:35:22.257Z,13748.00
2018-04-25T11:36:22.452Z,14196.00
2018-04-25T11:37:22.617Z,14092.00
2018-04-25T11:38:22.807Z,13788.00
2018-04-25T11:39:22.997Z,13284.00
2018-04-25T11:40:23.186Z,13360.00
2018-04-25T11:41:23.374Z,12720.00
2018-04-25T11:42:23.565Z,11732.00
2018-04-25T11:43:23.755Z,10736.00
2018-04-25T11:44:23.946Z,11572.00
2018-04-25T11:45:24.142Z,14532.00
2018-04-25T11:46:24.325Z,16928.00
2018-04-25T11:47:24.514Z,17152.00
2018-04-25T11:48:24.702Z,16472.00
2018-04-25T11:49:24.893Z,16332.00
2018-04-25T11:50:25.083Z,18176.00
2018-04-25T11:51:25.272Z,15864.00
2018-04-25T11:52:25.462Z,15584.00
2018-04-25T11:53:25.651Z,15972.00
2018-04-25T11:54:25.849Z,14288.00
2018-04-25T11:55:26.030Z,13280.00
2018-04-25T11:56:26.218Z,13080.00
2018-04-25T11:57:26.407Z,12044.00
2018-04-25T11:58:26.598Z,10444.00
2018-04-25T11:59:26.788Z,9224.00
2018-04-25T12:00:26.978Z,9064.00
2018-04-25T12:01:27.168Z,9376.00
2018-04-25T12:02:27.359Z,10576.00
2018-04-25T12:03:27.546Z,12296.00
2018-04-25T12:04:27.736Z,15064.00
2018-04-25T12:05:27.928Z,16928.00
2018-04-25T12:06:28.120Z,16296.00
2018-04-25T12:07:28.309Z,16164.00
2018-04-25T12:08:28.498Z,16508.00
2018-04-25T12:09:28.690Z,16348.00
2018-04-25T12:10:28.879Z,17152.00
2018-04-25T12:11:29.071Z,18272.00
2018-04-25T12:12:29.269Z,17568.00
2018-04-25T12:13:29.462Z,14932.00
2018-04-25T12:14:29.642Z,13088.00
2018-04-25T12:15:29.832Z,12532.00
2018-04-25T12:16:30.021Z,11460.00
2018-04-25T12:17:30.212Z,11304.00
2018-04-25T12:18:30.401Z,11004.00
2018-04-25T12:19:30.593Z,12220.00
2018-04-25T12:20:30.784Z,14048.00
2018-04-25T12:21:30.974Z,14852.00
2018-04-25T12:22:31.164Z,16336.00